Terminal Aerodrome Forecast
Issued by NWS

Home | Current Version | Previous Version | Text Only | Print | Product List | Glossary On
Versions: 1 2 3 4 5 6 7 8 9 10 11 12 13 14 15 16 17 18 19 20 21 22 23
000
FTUS43 KAPX 251120
TAFMBL
TAF
KMBL 251120Z 2512/2612 13006KT P6SM SCT090
     FM251400 14007KT P6SM BKN060
     FM260000 15009KT P6SM SHRA OVC070 WS020/17035KT
     FM260300 16009KT 6SM SHRA BR OVC025 WS020/17035KT
     FM260600 24006KT P6SM SHRA OVC015
     FM260900 26007KT P6SM OVC025=

USA.gov is the U.S. government's official web portal to all federal, state and local government web resources and services.